sensor_id;sensor_type;location;lat;lon;timestamp;pressure;altitude;pressure_sealevel;temperature;humidity
31299;BME280;17927;52.350;13.402;2023-07-29T00:01:35;100451.03;;;22.67;62.28
31299;BME280;17927;52.350;13.402;2023-07-29T00:04:01;100448.75;;;22.64;62.24
31299;BME280;17927;52.350;13.402;2023-07-29T00:06:26;100448.97;;;22.62;62.43
31299;BME280;17927;52.350;13.402;2023-07-29T00:08:52;100448.34;;;22.60;62.64
31299;BME280;17927;52.350;13.402;2023-07-29T00:11:17;100444.16;;;22.58;62.68
31299;BME280;17927;52.350;13.402;2023-07-29T00:13:42;100442.47;;;22.57;62.65
31299;BME280;17927;52.350;13.402;2023-07-29T00:16:08;100438.50;;;22.53;62.74
31299;BME280;17927;52.350;13.402;2023-07-29T00:18:33;100432.38;;;22.50;62.70
31299;BME280;17927;52.350;13.402;2023-07-29T00:20:58;100440.06;;;22.48;62.71
31299;BME280;17927;52.350;13.402;2023-07-29T00:23:23;100430.94;;;22.48;62.72
31299;BME280;17927;52.350;13.402;2023-07-29T00:25:49;100422.94;;;22.46;62.71
31299;BME280;17927;52.350;13.402;2023-07-29T00:28:14;100433.31;;;22.44;63.05
31299;BME280;17927;52.350;13.402;2023-07-29T00:30:39;100426.38;;;22.42;62.57
31299;BME280;17927;52.350;13.402;2023-07-29T00:33:05;100417.94;;;22.36;62.81
31299;BME280;17927;52.350;13.402;2023-07-29T00:35:30;100430.25;;;22.34;62.23
31299;BME280;17927;52.350;13.402;2023-07-29T00:37:55;100426.25;;;22.30;62.44
31299;BME280;17927;52.350;13.402;2023-07-29T00:40:22;100428.63;;;22.26;62.22
31299;BME280;17927;52.350;13.402;2023-07-29T00:42:47;100432.03;;;22.21;62.25
31299;BME280;17927;52.350;13.402;2023-07-29T00:45:13;100428.91;;;22.18;61.94
31299;BME280;17927;52.350;13.402;2023-07-29T00:47:39;100430.44;;;22.14;61.66
31299;BME280;17927;52.350;13.402;2023-07-29T00:50:05;100432.81;;;22.10;61.88
31299;BME280;17927;52.350;13.402;2023-07-29T00:52:31;100423.13;;;22.08;61.78
31299;BME280;17927;52.350;13.402;2023-07-29T00:54:56;100421.88;;;22.03;61.80
31299;BME280;17927;52.350;13.402;2023-07-29T00:57:22;100420.19;;;22.02;61.43
31299;BME280;17927;52.350;13.402;2023-07-29T00:59:50;100416.81;;;22.00;61.93
31299;BME280;17927;52.350;13.402;2023-07-29T01:02:16;100412.41;;;21.99;61.91
31299;BME280;17927;52.350;13.402;2023-07-29T01:04:41;100410.94;;;21.97;62.23
31299;BME280;17927;52.350;13.402;2023-07-29T01:09:53;100404.00;;;21.94;62.11
31299;BME280;17927;52.350;13.402;2023-07-29T01:12:24;100407.81;;;21.93;62.35
31299;BME280;17927;52.350;13.402;2023-07-29T01:17:43;100397.03;;;21.92;62.46
31299;BME280;17927;52.350;13.402;2023-07-29T01:20:15;100388.41;;;21.88;62.46
31299;BME280;17927;52.350;13.402;2023-07-29T01:22:41;100382.09;;;21.87;62.86
31299;BME280;17927;52.350;13.402;2023-07-29T01:25:07;100381.22;;;21.87;62.65
31299;BME280;17927;52.350;13.402;2023-07-29T01:27:32;100390.78;;;21.84;62.60
31299;BME280;17927;52.350;13.402;2023-07-29T01:29:58;100391.22;;;21.81;62.68
31299;BME280;17927;52.350;13.402;2023-07-29T01:32:35;100377.72;;;21.80;62.71
31299;BME280;17927;52.350;13.402;2023-07-29T01:37:38;100394.03;;;21.74;62.53
31299;BME280;17927;52.350;13.402;2023-07-29T01:40:05;100390.66;;;21.72;62.38
31299;BME280;17927;52.350;13.402;2023-07-29T01:42:32;100396.00;;;21.67;62.39
31299;BME280;17927;52.350;13.402;2023-07-29T01:44:57;100394.31;;;21.66;62.55
31299;BME280;17927;52.350;13.402;2023-07-29T01:47:22;100393.72;;;21.64;62.88
31299;BME280;17927;52.350;13.402;2023-07-29T01:49:48;100395.00;;;21.62;62.73
31299;BME280;17927;52.350;13.402;2023-07-29T01:52:13;100397.97;;;21.60;62.59
31299;BME280;17927;52.350;13.402;2023-07-29T01:54:38;100396.47;;;21.57;62.27
31299;BME280;17927;52.350;13.402;2023-07-29T01:57:03;100389.53;;;21.55;62.33
31299;BME280;17927;52.350;13.402;2023-07-29T01:59:29;100396.31;;;21.52;62.50
31299;BME280;17927;52.350;13.402;2023-07-29T02:01:54;100395.47;;;21.52;62.48
31299;BME280;17927;52.350;13.402;2023-07-29T02:04:19;100391.03;;;21.51;62.93
31299;BME280;17927;52.350;13.402;2023-07-29T02:06:45;100395.69;;;21.50;62.94
31299;BME280;17927;52.350;13.402;2023-07-29T02:09:10;100387.69;;;21.49;63.12
31299;BME280;17927;52.350;13.402;2023-07-29T02:11:35;100390.66;;;21.47;63.01
31299;BME280;17927;52.350;13.402;2023-07-29T02:14:00;100397.22;;;21.46;63.28
31299;BME280;17927;52.350;13.402;2023-07-29T02:16:25;100388.13;;;21.45;63.42
31299;BME280;17927;52.350;13.402;2023-07-29T02:18:51;100397.44;;;21.44;63.47
31299;BME280;17927;52.350;13.402;2023-07-29T02:21:16;100394.91;;;21.43;63.44
31299;BME280;17927;52.350;13.402;2023-07-29T02:23:42;100398.72;;;21.42;63.48
31299;BME280;17927;52.350;13.402;2023-07-29T02:26:07;100401.69;;;21.40;63.30
31299;BME280;17927;52.350;13.402;2023-07-29T02:28:32;100405.75;;;21.38;63.21
31299;BME280;17927;52.350;13.402;2023-07-29T02:33:39;100392.06;;;21.31;63.02
31299;BME280;17927;52.350;13.402;2023-07-29T02:36:04;100397.75;;;21.29;63.42
31299;BME280;17927;52.350;13.402;2023-07-29T02:38:30;100387.63;;;21.30;63.40
31299;BME280;17927;52.350;13.402;2023-07-29T02:40:55;100386.78;;;21.29;63.54
31299;BME280;17927;52.350;13.402;2023-07-29T02:43:20;100388.69;;;21.29;63.56
31299;BME280;17927;52.350;13.402;2023-07-29T02:45:46;100393.78;;;21.25;63.26
31299;BME280;17927;52.350;13.402;2023-07-29T02:48:11;100388.31;;;21.25;63.31
31299;BME280;17927;52.350;13.402;2023-07-29T02:50:36;100394.63;;;21.26;63.48
31299;BME280;17927;52.350;13.402;2023-07-29T02:53:01;100391.06;;;21.25;63.38
31299;BME280;17927;52.350;13.402;2023-07-29T02:55:27;100391.88;;;21.26;63.82
31299;BME280;17927;52.350;13.402;2023-07-29T02:57:52;100397.59;;;21.24;63.85
31299;BME280;17927;52.350;13.402;2023-07-29T03:00:17;100399.72;;;21.22;63.67
31299;BME280;17927;52.350;13.402;2023-07-29T03:02:43;100395.28;;;21.21;63.76
31299;BME280;17927;52.350;13.402;2023-07-29T03:05:08;100399.09;;;21.20;63.64
31299;BME280;17927;52.350;13.402;2023-07-29T03:07:33;100409.03;;;21.21;63.92
31299;BME280;17927;52.350;13.402;2023-07-29T03:09:58;100407.53;;;21.19;63.77
31299;BME280;17927;52.350;13.402;2023-07-29T03:12:24;100412.22;;;21.18;64.19
31299;BME280;17927;52.350;13.402;2023-07-29T03:14:49;100401.47;;;21.17;63.96
31299;BME280;17927;52.350;13.402;2023-07-29T03:17:14;100401.47;;;21.17;63.93
31299;BME280;17927;52.350;13.402;2023-07-29T03:19:39;100398.72;;;21.17;63.84
31299;BME280;17927;52.350;13.402;2023-07-29T03:22:05;100394.91;;;21.18;63.88
31299;BME280;17927;52.350;13.402;2023-07-29T03:24:30;100386.66;;;21.18;64.00
31299;BME280;17927;52.350;13.402;2023-07-29T03:26:55;100388.31;;;21.19;63.73
31299;BME280;17927;52.350;13.402;2023-07-29T03:29:20;100389.41;;;21.18;63.89
31299;BME280;17927;52.350;13.402;2023-07-29T03:31:46;100394.06;;;21.17;63.93
31299;BME280;17927;52.350;13.402;2023-07-29T03:34:11;100392.38;;;21.16;64.26
31299;BME280;17927;52.350;13.402;2023-07-29T03:36:37;100386.25;;;21.14;64.10
31299;BME280;17927;52.350;13.402;2023-07-29T03:39:02;100382.69;;;21.13;64.27
31299;BME280;17927;52.350;13.402;2023-07-29T03:41:29;100380.75;;;21.14;64.28
31299;BME280;17927;52.350;13.402;2023-07-29T03:43:54;100398.09;;;21.14;64.29
31299;BME280;17927;52.350;13.402;2023-07-29T03:46:19;100396.19;;;21.15;64.82
31299;BME280;17927;52.350;13.402;2023-07-29T03:48:47;100385.00;;;21.17;64.87
31299;BME280;17927;52.350;13.402;2023-07-29T03:51:12;100382.00;;;21.18;64.70
31299;BME280;17927;52.350;13.402;2023-07-29T03:53:37;100376.06;;;21.21;65.00
31299;BME280;17927;52.350;13.402;2023-07-29T03:56:02;100371.81;;;21.25;65.40
31299;BME280;17927;52.350;13.402;2023-07-29T03:58:27;100378.31;;;21.31;65.50
31299;BME280;17927;52.350;13.402;2023-07-29T04:00:53;100372.97;;;21.36;65.68
31299;BME280;17927;52.350;13.402;2023-07-29T04:03:18;100377.81;;;21.41;65.23
31299;BME280;17927;52.350;13.402;2023-07-29T04:05:43;100373.53;;;21.45;65.58
31299;BME280;17927;52.350;13.402;2023-07-29T04:08:09;100377.53;;;21.49;65.42
31299;BME280;17927;52.350;13.402;2023-07-29T04:10:35;100370.53;;;21.53;65.14
31299;BME280;17927;52.350;13.402;2023-07-29T04:13:00;100370.09;;;21.56;65.42
31299;BME280;17927;52.350;13.402;2023-07-29T04:15:25;100365.19;;;21.58;64.96
31299;BME280;17927;52.350;13.402;2023-07-29T04:17:51;100363.28;;;21.59;65.24
31299;BME280;17927;52.350;13.402;2023-07-29T04:20:16;100362.44;;;21.58;65.04
31299;BME280;17927;52.350;13.402;2023-07-29T04:22:41;100360.53;;;21.59;65.28
31299;BME280;17927;52.350;13.402;2023-07-29T04:25:06;100367.50;;;21.62;65.19
31299;BME280;17927;52.350;13.402;2023-07-29T04:27:32;100373.00;;;21.62;65.25
31299;BME280;17927;52.350;13.402;2023-07-29T04:29:57;100381.25;;;21.62;65.07
31299;BME280;17927;52.350;13.402;2023-07-29T04:32:22;100377.44;;;21.63;65.28
31299;BME280;17927;52.350;13.402;2023-07-29T04:34:47;100375.31;;;21.65;65.13
31299;BME280;17927;52.350;13.402;2023-07-29T04:37:13;100384.56;;;21.70;65.77
31299;BME280;17927;52.350;13.402;2023-07-29T04:39:38;100383.88;;;21.75;65.79
31299;BME280;17927;52.350;13.402;2023-07-29T04:42:03;100387.63;;;21.81;65.72
31299;BME280;17927;52.350;13.402;2023-07-29T04:44:29;100382.09;;;21.87;66.15
31299;BME280;17927;52.350;13.402;2023-07-29T04:46:54;100388.78;;;21.92;66.34
31299;BME280;17927;52.350;13.402;2023-07-29T04:49:19;100380.25;;;22.00;66.36
31299;BME280;17927;52.350;13.402;2023-07-29T04:51:44;100386.28;;;22.09;66.68
31299;BME280;17927;52.350;13.402;2023-07-29T04:54:10;100379.03;;;22.14;66.02
31299;BME280;17927;52.350;13.402;2023-07-29T04:56:35;100377.72;;;22.17;66.43
31299;BME280;17927;52.350;13.402;2023-07-29T04:59:00;100381.72;;;22.21;65.86
31299;BME280;17927;52.350;13.402;2023-07-29T05:01:25;100381.47;;;22.23;66.05
31299;BME280;17927;52.350;13.402;2023-07-29T05:03:51;100368.31;;;22.25;66.02
31299;BME280;17927;52.350;13.402;2023-07-29T05:06:16;100358.19;;;22.25;65.89
31299;BME280;17927;52.350;13.402;2023-07-29T05:08:42;100362.38;;;22.28;66.33
31299;BME280;17927;52.350;13.402;2023-07-29T05:11:07;100366.97;;;22.34;66.93
31299;BME280;17927;52.350;13.402;2023-07-29T05:13:32;100368.09;;;22.45;66.89
31299;BME280;17927;52.350;13.402;2023-07-29T05:15:57;100373.81;;;22.62;67.66
31299;BME280;17927;52.350;13.402;2023-07-29T05:18:23;100362.16;;;22.78;67.57
31299;BME280;17927;52.350;13.402;2023-07-29T05:20:49;100351.56;;;22.94;67.30
31299;BME280;17927;52.350;13.402;2023-07-29T05:23:14;100355.31;;;23.11;67.76
31299;BME280;17927;52.350;13.402;2023-07-29T05:25:39;100360.84;;;23.23;67.46
31299;BME280;17927;52.350;13.402;2023-07-29T05:28:04;100365.78;;;23.33;66.95
31299;BME280;17927;52.350;13.402;2023-07-29T05:30:30;100365.56;;;23.35;66.56
31299;BME280;17927;52.350;13.402;2023-07-29T05:33:03;100365.06;;;23.38;66.45
31299;BME280;17927;52.350;13.402;2023-07-29T05:35:29;100368.09;;;23.36;66.37
31299;BME280;17927;52.350;13.402;2023-07-29T05:37:54;100363.38;;;23.37;66.49
31299;BME280;17927;52.350;13.402;2023-07-29T05:40:19;100355.63;;;23.46;67.14
31299;BME280;17927;52.350;13.402;2023-07-29T05:42:45;100362.69;;;23.53;66.92
31299;BME280;17927;52.350;13.402;2023-07-29T05:45:11;100367.25;;;23.60;66.77
31299;BME280;17927;52.350;13.402;2023-07-29T05:47:36;100369.06;;;23.66;66.83
31299;BME280;17927;52.350;13.402;2023-07-29T05:50:02;100361.50;;;23.73;66.56
31299;BME280;17927;52.350;13.402;2023-07-29T05:52:32;100363.31;;;23.79;66.77
31299;BME280;17927;52.350;13.402;2023-07-29T05:54:58;100352.38;;;23.84;66.76
31299;BME280;17927;52.350;13.402;2023-07-29T05:57:23;100342.53;;;23.88;66.45
31299;BME280;17927;52.350;13.402;2023-07-29T05:59:49;100344.81;;;23.92;66.22
31299;BME280;17927;52.350;13.402;2023-07-29T06:02:14;100342.88;;;23.92;66.19
31299;BME280;17927;52.350;13.402;2023-07-29T06:04:39;100340.72;;;23.94;66.13
31299;BME280;17927;52.350;13.402;2023-07-29T06:07:05;100344.72;;;23.98;66.08
31299;BME280;17927;52.350;13.402;2023-07-29T06:09:31;100340.63;;;24.01;66.31
31299;BME280;17927;52.350;13.402;2023-07-29T06:11:56;100334.91;;;24.02;65.91
31299;BME280;17927;52.350;13.402;2023-07-29T06:14:21;100338.47;;;24.03;65.58
31299;BME280;17927;52.350;13.402;2023-07-29T06:16:46;100334.91;;;24.02;65.64
31299;BME280;17927;52.350;13.402;2023-07-29T06:19:12;100328.28;;;24.04;65.49
31299;BME280;17927;52.350;13.402;2023-07-29T06:21:38;100320.97;;;24.09;65.63
31299;BME280;17927;52.350;13.402;2023-07-29T06:24:03;100328.25;;;24.15;65.91
31299;BME280;17927;52.350;13.402;2023-07-29T06:26:29;100331.25;;;24.26;66.13
31299;BME280;17927;52.350;13.402;2023-07-29T06:28:54;100334.78;;;24.38;66.61
31299;BME280;17927;52.350;13.402;2023-07-29T06:31:19;100333.66;;;24.51;67.04
31299;BME280;17927;52.350;13.402;2023-07-29T06:33:45;100339.47;;;24.67;66.33
31299;BME280;17927;52.350;13.402;2023-07-29T06:36:11;100331.75;;;24.81;66.04
31299;BME280;17927;52.350;13.402;2023-07-29T06:38:36;100335.78;;;24.90;65.81
31299;BME280;17927;52.350;13.402;2023-07-29T06:41:03;100334.88;;;25.01;65.20
31299;BME280;17927;52.350;13.402;2023-07-29T06:43:28;100336.41;;;25.09;65.12
31299;BME280;17927;52.350;13.402;2023-07-29T06:45:54;100337.06;;;25.16;64.93
31299;BME280;17927;52.350;13.402;2023-07-29T06:48:20;100352.16;;;25.26;64.69
31299;BME280;17927;52.350;13.402;2023-07-29T06:50:45;100343.41;;;25.34;64.57
31299;BME280;17927;52.350;13.402;2023-07-29T06:53:11;100353.84;;;25.44;64.77
31299;BME280;17927;52.350;13.402;2023-07-29T06:55:36;100351.22;;;25.54;64.37
31299;BME280;17927;52.350;13.402;2023-07-29T06:58:02;100355.50;;;25.62;63.90
31299;BME280;17927;52.350;13.402;2023-07-29T07:00:27;100352.81;;;25.67;63.85
31299;BME280;17927;52.350;13.402;2023-07-29T07:02:53;100353.47;;;25.74;63.69
31299;BME280;17927;52.350;13.402;2023-07-29T07:05:18;100361.84;;;25.79;63.37
31299;BME280;17927;52.350;13.402;2023-07-29T07:07:43;100354.97;;;25.82;63.24
31299;BME280;17927;52.350;13.402;2023-07-29T07:10:08;100354.44;;;25.85;63.32
31299;BME280;17927;52.350;13.402;2023-07-29T07:12:34;100349.00;;;25.90;63.24
31299;BME280;17927;52.350;13.402;2023-07-29T07:15:00;100347.97;;;25.96;63.12
31299;BME280;17927;52.350;13.402;2023-07-29T07:17:25;100354.66;;;26.00;62.74
31299;BME280;17927;52.350;13.402;2023-07-29T07:19:50;100350.28;;;26.05;62.74
31299;BME280;17927;52.350;13.402;2023-07-29T07:22:16;100363.63;;;26.08;62.36
31299;BME280;17927;52.350;13.402;2023-07-29T07:24:41;100356.72;;;26.10;61.81
31299;BME280;17927;52.350;13.402;2023-07-29T07:27:06;100358.44;;;26.11;61.59
31299;BME280;17927;52.350;13.402;2023-07-29T07:29:31;100360.69;;;26.14;61.82
31299;BME280;17927;52.350;13.402;2023-07-29T07:31:57;100356.31;;;26.19;61.57
31299;BME280;17927;52.350;13.402;2023-07-29T07:34:22;100356.13;;;26.25;61.80
31299;BME280;17927;52.350;13.402;2023-07-29T07:36:48;100342.91;;;26.33;61.81
31299;BME280;17927;52.350;13.402;2023-07-29T07:39:14;100344.97;;;26.42;61.22
31299;BME280;17927;52.350;13.402;2023-07-29T07:41:40;100346.44;;;26.50;61.32
31299;BME280;17927;52.350;13.402;2023-07-29T07:44:05;100345.16;;;26.58;61.09
31299;BME280;17927;52.350;13.402;2023-07-29T07:46:30;100345.22;;;26.63;60.38
31299;BME280;17927;52.350;13.402;2023-07-29T07:48:56;100345.28;;;26.68;60.54
31299;BME280;17927;52.350;13.402;2023-07-29T07:51:21;100339.53;;;26.75;60.41
31299;BME280;17927;52.350;13.402;2023-07-29T07:53:46;100333.22;;;26.80;60.36
31299;BME280;17927;52.350;13.402;2023-07-29T07:56:11;100340.50;;;26.86;59.46
31299;BME280;17927;52.350;13.402;2023-07-29T07:58:38;100337.50;;;26.93;59.79
31299;BME280;17927;52.350;13.402;2023-07-29T08:01:07;100329.56;;;27.01;59.32
31299;BME280;17927;52.350;13.402;2023-07-29T08:03:33;100333.72;;;27.04;58.94
31299;BME280;17927;52.350;13.402;2023-07-29T08:05:58;100329.88;;;27.05;59.14
31299;BME280;17927;52.350;13.402;2023-07-29T08:08:25;100330.44;;;27.07;58.77
31299;BME280;17927;52.350;13.402;2023-07-29T08:10:51;100327.38;;;27.09;58.67
31299;BME280;17927;52.350;13.402;2023-07-29T08:13:16;100332.41;;;27.12;58.92
31299;BME280;17927;52.350;13.402;2023-07-29T08:15:45;100321.91;;;27.14;58.46
31299;BME280;17927;52.350;13.402;2023-07-29T08:18:11;100318.03;;;27.15;58.30
31299;BME280;17927;52.350;13.402;2023-07-29T08:20:36;100324.16;;;27.22;58.66
31299;BME280;17927;52.350;13.402;2023-07-29T08:23:01;100317.06;;;27.31;58.63
31299;BME280;17927;52.350;13.402;2023-07-29T08:25:28;100309.13;;;27.45;58.58
31299;BME280;17927;52.350;13.402;2023-07-29T08:27:53;100307.25;;;27.56;58.29
31299;BME280;17927;52.350;13.402;2023-07-29T08:30:19;100302.31;;;27.63;58.00
31299;BME280;17927;52.350;13.402;2023-07-29T08:32:44;100299.31;;;27.70;57.41
31299;BME280;17927;52.350;13.402;2023-07-29T08:35:09;100292.41;;;27.78;57.08
31299;BME280;17927;52.350;13.402;2023-07-29T08:37:35;100299.09;;;27.87;57.30
31299;BME280;17927;52.350;13.402;2023-07-29T08:40:00;100298.56;;;27.95;56.83
31299;BME280;17927;52.350;13.402;2023-07-29T08:42:29;100302.50;;;28.05;56.71
31299;BME280;17927;52.350;13.402;2023-07-29T08:44:56;100293.41;;;28.09;57.26
31299;BME280;17927;52.350;13.402;2023-07-29T08:47:22;100293.13;;;28.16;56.30
31299;BME280;17927;52.350;13.402;2023-07-29T08:49:47;100294.28;;;28.20;56.67
31299;BME280;17927;52.350;13.402;2023-07-29T08:52:14;100294.59;;;28.29;56.20
31299;BME280;17927;52.350;13.402;2023-07-29T08:54:39;100296.00;;;28.37;56.26
31299;BME280;17927;52.350;13.402;2023-07-29T08:57:06;100295.69;;;28.38;55.58
31299;BME280;17927;52.350;13.402;2023-07-29T08:59:31;100291.81;;;28.39;55.14
31299;BME280;17927;52.350;13.402;2023-07-29T09:01:58;100289.91;;;28.40;54.88
31299;BME280;17927;52.350;13.402;2023-07-29T09:04:23;100291.81;;;28.39;54.88
31299;BME280;17927;52.350;13.402;2023-07-29T09:06:50;100287.94;;;28.40;54.45
31299;BME280;17927;52.350;13.402;2023-07-29T09:09:16;100285.72;;;28.42;54.66
31299;BME280;17927;52.350;13.402;2023-07-29T09:11:41;100290.44;;;28.47;54.52
31299;BME280;17927;52.350;13.402;2023-07-29T09:14:06;100276.28;;;28.54;54.84
31299;BME280;17927;52.350;13.402;2023-07-29T09:16:32;100285.22;;;28.61;55.11
31299;BME280;17927;52.350;13.402;2023-07-29T09:19:01;100286.31;;;28.70;53.91
31299;BME280;17927;52.350;13.402;2023-07-29T09:21:28;100276.94;;;28.77;54.21
31299;BME280;17927;52.350;13.402;2023-07-29T09:23:54;100273.31;;;28.81;53.74
31299;BME280;17927;52.350;13.402;2023-07-29T09:26:24;100269.69;;;28.86;54.09
31299;BME280;17927;52.350;13.402;2023-07-29T09:28:57;100264.13;;;28.91;53.30
31299;BME280;17927;52.350;13.402;2023-07-29T09:31:27;100261.63;;;28.95;53.24
31299;BME280;17927;52.350;13.402;2023-07-29T09:33:57;100263.03;;;28.92;52.93
31299;BME280;17927;52.350;13.402;2023-07-29T09:36:23;100256.91;;;28.75;54.07
31299;BME280;17927;52.350;13.402;2023-07-29T09:38:55;100260.53;;;28.85;54.19
31299;BME280;17927;52.350;13.402;2023-07-29T09:41:25;100257.19;;;28.99;54.07
31299;BME280;17927;52.350;13.402;2023-07-29T09:44:02;100258.84;;;29.05;53.45
31299;BME280;17927;52.350;13.402;2023-07-29T09:46:35;100256.06;;;29.10;53.40
31299;BME280;17927;52.350;13.402;2023-07-29T09:49:03;100250.22;;;29.17;53.52
31299;BME280;17927;52.350;13.402;2023-07-29T09:51:28;100251.59;;;29.25;53.78
31299;BME280;17927;52.350;13.402;2023-07-29T09:53:54;100247.41;;;29.32;53.22
31299;BME280;17927;52.350;13.402;2023-07-29T09:56:26;100248.00;;;29.40;53.05
31299;BME280;17927;52.350;13.402;2023-07-29T09:58:52;100251.34;;;29.42;52.34
31299;BME280;17927;52.350;13.402;2023-07-29T10:01:17;100244.91;;;29.46;52.65
31299;BME280;17927;52.350;13.402;2023-07-29T10:03:44;100247.66;;;29.52;52.06
31299;BME280;17927;52.350;13.402;2023-07-29T10:06:10;100243.75;;;29.53;51.56
31299;BME280;17927;52.350;13.402;2023-07-29T10:08:36;100252.66;;;29.55;51.50
31299;BME280;17927;52.350;13.402;2023-07-29T10:11:08;100238.19;;;29.58;51.47
31299;BME280;17927;52.350;13.402;2023-07-29T10:13:35;100234.56;;;29.62;51.16
31299;BME280;17927;52.350;13.402;2023-07-29T10:16:00;100227.06;;;29.63;49.97
31299;BME280;17927;52.350;13.402;2023-07-29T10:18:29;100229.53;;;29.65;48.65
31299;BME280;17927;52.350;13.402;2023-07-29T10:20:57;100224.53;;;29.67;48.81
31299;BME280;17927;52.350;13.402;2023-07-29T10:23:24;100227.84;;;29.74;49.40
31299;BME280;17927;52.350;13.402;2023-07-29T10:26:13;100226.13;;;29.83;49.23
31299;BME280;17927;52.350;13.402;2023-07-29T10:28:40;100214.94;;;29.93;49.05
31299;BME280;17927;52.350;13.402;2023-07-29T10:31:07;100223.56;;;30.02;49.28
31299;BME280;17927;52.350;13.402;2023-07-29T10:33:33;100208.50;;;30.08;48.75
31299;BME280;17927;52.350;13.402;2023-07-29T10:35:59;100210.72;;;30.12;48.05
31299;BME280;17927;52.350;13.402;2023-07-29T10:38:25;100212.91;;;30.15;48.03
31299;BME280;17927;52.350;13.402;2023-07-29T10:40:51;100213.19;;;30.18;47.73
31299;BME280;17927;52.350;13.402;2023-07-29T10:43:33;100200.63;;;30.21;47.42
31299;BME280;17927;52.350;13.402;2023-07-29T10:46:22;100190.59;;;30.20;47.62
31299;BME280;17927;52.350;13.402;2023-07-29T10:51:34;100173.88;;;30.25;46.92
31299;BME280;17927;52.350;13.402;2023-07-29T10:54:13;100175.53;;;30.26;47.14
31299;BME280;17927;52.350;13.402;2023-07-29T10:56:47;100163.53;;;30.26;47.16
31299;BME280;17927;52.350;13.402;2023-07-29T11:01:42;100153.19;;;30.31;46.86
31299;BME280;17927;52.350;13.402;2023-07-29T11:15:27;100224.84;;;29.60;52.93
31299;BME280;17927;52.350;13.402;2023-07-29T11:17:58;100220.78;;;29.06;53.87
31299;BME280;17927;52.350;13.402;2023-07-29T11:20:28;100202.41;;;28.42;55.96
31299;BME280;17927;52.350;13.402;2023-07-29T11:22:55;100207.00;;;27.95;57.55
31299;BME280;17927;52.350;13.402;2023-07-29T11:25:22;100213.53;;;27.58;58.79
31299;BME280;17927;52.350;13.402;2023-07-29T11:27:48;100199.47;;;27.27;59.91
31299;BME280;17927;52.350;13.402;2023-07-29T11:30:15;100209.59;;;27.06;60.56
31299;BME280;17927;52.350;13.402;2023-07-29T11:32:42;100209.16;;;26.87;62.00
31299;BME280;17927;52.350;13.402;2023-07-29T11:35:10;100211.53;;;26.73;62.57
31299;BME280;17927;52.350;13.402;2023-07-29T11:37:37;100205.38;;;26.66;63.68
31299;BME280;17927;52.350;13.402;2023-07-29T11:40:03;100197.84;;;26.61;64.43
31299;BME280;17927;52.350;13.402;2023-07-29T11:42:31;100192.06;;;26.63;65.14
31299;BME280;17927;52.350;13.402;2023-07-29T11:44:57;100191.28;;;26.67;66.21
31299;BME280;17927;52.350;13.402;2023-07-29T11:47:26;100184.41;;;26.75;66.91
31299;BME280;17927;52.350;13.402;2023-07-29T11:49:51;100190.00;;;26.80;67.09
31299;BME280;17927;52.350;13.402;2023-07-29T11:52:18;100195.00;;;26.83;67.16
31299;BME280;17927;52.350;13.402;2023-07-29T11:54:48;100192.53;;;26.82;67.05
31299;BME280;17927;52.350;13.402;2023-07-29T11:57:13;100192.19;;;26.78;67.13
31299;BME280;17927;52.350;13.402;2023-07-29T11:59:40;100186.31;;;26.74;67.44
31299;BME280;17927;52.350;13.402;2023-07-29T12:02:12;100189.63;;;26.71;67.14
31299;BME280;17927;52.350;13.402;2023-07-29T12:04:39;100188.50;;;26.67;67.46
31299;BME280;17927;52.350;13.402;2023-07-29T12:07:05;100198.16;;;26.65;67.59
31299;BME280;17927;52.350;13.402;2023-07-29T12:09:30;100205.06;;;26.62;68.17
31299;BME280;17927;52.350;13.402;2023-07-29T12:11:56;100204.75;;;26.58;68.00
31299;BME280;17927;52.350;13.402;2023-07-29T12:14:22;100200.84;;;26.54;68.36
31299;BME280;17927;52.350;13.402;2023-07-29T12:16:51;100202.78;;;26.54;68.71
31299;BME280;17927;52.350;13.402;2023-07-29T12:19:17;100209.94;;;26.50;68.76
31299;BME280;17927;52.350;13.402;2023-07-29T12:21:43;100213.25;;;26.47;68.98
31299;BME280;17927;52.350;13.402;2023-07-29T12:24:09;100217.63;;;26.42;69.15
31299;BME280;17927;52.350;13.402;2023-07-29T12:26:37;100223.66;;;26.39;69.59
31299;BME280;17927;52.350;13.402;2023-07-29T12:29:13;100219.25;;;26.38;69.37
31299;BME280;17927;52.350;13.402;2023-07-29T12:31:38;100221.97;;;26.33;69.60
31299;BME280;17927;52.350;13.402;2023-07-29T12:34:04;100219.09;;;26.23;68.73
31299;BME280;17927;52.350;13.402;2023-07-29T12:36:49;100223.69;;;26.12;67.73
31299;BME280;17927;52.350;13.402;2023-07-29T12:39:25;100227.06;;;25.97;67.91
31299;BME280;17927;52.350;13.402;2023-07-29T12:41:52;100215.38;;;25.90;68.28
31299;BME280;17927;52.350;13.402;2023-07-29T12:44:18;100212.28;;;25.86;68.67
31299;BME280;17927;52.350;13.402;2023-07-29T12:46:43;100206.75;;;25.86;68.92
31299;BME280;17927;52.350;13.402;2023-07-29T12:49:09;100206.75;;;25.86;68.69
31299;BME280;17927;52.350;13.402;2023-07-29T12:51:34;100192.69;;;25.88;68.92
31299;BME280;17927;52.350;13.402;2023-07-29T12:54:00;100191.31;;;25.90;68.89
31299;BME280;17927;52.350;13.402;2023-07-29T12:56:26;100200.47;;;25.91;68.87
31299;BME280;17927;52.350;13.402;2023-07-29T12:58:52;100196.06;;;25.95;69.15
31299;BME280;17927;52.350;13.402;2023-07-29T13:01:17;100190.66;;;26.05;70.15
31299;BME280;17927;52.350;13.402;2023-07-29T13:03:47;100188.38;;;26.24;71.22